Time;durP1;ratioP1;P1;durP2;ratioP2;P2;SDS_P1;SDS_P2;PMS_P1;PMS_P2;Temp;Humidity;BMP_temperature;BMP_pressure;BME280_temperature;BME280_humidity;BME280_pressure;Samples;Min_cycle;Max_cycle;Signal;HPM_P1;HPM_P2
2024/03/05 00:04:47;;;;;;;91.45;36.05;;;;;;;7.98;100.00;100120.81;10323104;28;20057;-80
2024/03/05 00:09:50;;;;;;;88.93;35.05;;;;;;;8.03;100.00;100119.50;10324258;28;20087;-80
2024/03/05 00:14:56;;;;;;;86.93;33.63;;;;;;;8.02;100.00;100119.63;10307402;28;20042;-80
2024/03/05 00:19:59;;;;;;;81.72;35.00;;;;;;;8.05;100.00;100114.06;10320832;28;20054;-78
2024/03/05 00:25:02;;;;;;;91.47;33.40;;;;;;;8.00;100.00;100122.41;10311249;28;20050;-81
2024/03/05 00:30:14;;;;;;;87.43;33.08;;;;;;;8.01;100.00;100118.78;10310466;28;20049;-79
2024/03/05 00:35:18;;;;;;;85.65;35.00;;;;;;;8.03;100.00;100122.19;10315735;28;20074;-79
2024/03/05 00:40:21;;;;;;;94.03;36.08;;;;;;;8.03;100.00;100129.34;10316816;28;20078;-80
2024/03/05 00:45:25;;;;;;;87.15;33.47;;;;;;;8.05;100.00;100122.91;10304958;28;20057;-81
2024/03/05 00:50:28;;;;;;;96.07;34.90;;;;;;;8.09;100.00;100120.84;10289052;28;20132;-78
2024/03/05 00:55:31;;;;;;;85.80;35.58;;;;;;;8.07;100.00;100117.47;10293855;28;20054;-79
2024/03/05 01:00:36;;;;;;;92.05;35.80;;;;;;;8.08;100.00;100124.50;10304699;28;20133;-79
2024/03/05 01:05:40;;;;;;;87.25;33.95;;;;;;;8.09;100.00;100126.22;10283632;28;20054;-78
2024/03/05 01:10:45;;;;;;;89.68;32.88;;;;;;;8.07;100.00;100125.50;10299177;28;20469;-78
2024/03/05 01:15:50;;;;;;;83.82;34.67;;;;;;;8.07;100.00;100128.16;10304026;28;20050;-80
2024/03/05 01:20:53;;;;;;;84.85;33.88;;;;;;;8.08;100.00;100125.38;10292040;28;20581;-80
2024/03/05 01:25:58;;;;;;;86.30;33.88;;;;;;;8.07;100.00;100123.66;10292328;28;20046;-79
2024/03/05 01:31:02;;;;;;;89.80;35.08;;;;;;;8.07;100.00;100114.78;10293824;28;20182;-81
2024/03/05 01:36:06;;;;;;;85.30;33.65;;;;;;;8.04;100.00;100110.53;10297155;28;20058;-80
2024/03/05 01:41:09;;;;;;;89.57;34.65;;;;;;;8.02;100.00;100114.28;10311534;28;20062;-80
2024/03/05 01:46:17;;;;;;;98.45;37.83;;;;;;;8.00;100.00;100106.34;10308739;28;20056;-79
2024/03/05 01:51:20;;;;;;;95.32;34.90;;;;;;;7.98;100.00;100104.75;10318097;28;20065;-79
2024/03/05 01:56:23;;;;;;;97.00;35.47;;;;;;;7.97;100.00;100106.59;10301884;28;20432;-79
2024/03/05 02:01:30;;;;;;;99.28;36.25;;;;;;;7.97;100.00;100106.59;10329483;28;20117;-81
2024/03/05 02:06:34;;;;;;;114.10;38.53;;;;;;;7.98;100.00;100104.75;10327734;28;21258;-80
2024/03/05 02:11:38;;;;;;;99.55;36.38;;;;;;;8.00;100.00;100108.19;10331944;28;20057;-81
2024/03/05 02:17:01;;;;;;;105.05;37.53;;;;;;;8.01;100.00;100116.13;10323594;28;21672;-80
2024/03/05 02:22:07;;;;;;;107.40;38.10;;;;;;;8.00;100.00;100113.53;10298848;28;20062;-80
2024/03/05 02:27:10;;;;;;;113.95;36.70;;;;;;;7.99;100.00;100109.16;10299857;28;20229;-80
2024/03/05 02:32:22;;;;;;;105.05;36.30;;;;;;;7.99;100.00;100114.50;10300165;28;20184;-80
2024/03/05 02:37:27;;;;;;;115.95;37.70;;;;;;;8.00;100.00;100121.56;10298264;28;20181;-81
2024/03/05 02:42:30;;;;;;;119.30;38.90;;;;;;;8.00;100.00;100126.91;10299965;28;20073;-81
2024/03/05 02:47:33;;;;;;;108.78;37.83;;;;;;;7.99;100.00;100126.06;10307402;28;20535;-80
2024/03/05 02:52:38;;;;;;;112.45;38.45;;;;;;;8.00;100.00;100134.94;10291316;28;20139;-80
2024/03/05 02:57:43;;;;;;;109.53;37.30;;;;;;;8.00;100.00;100133.09;10285199;28;20053;-79
2024/03/05 03:02:48;;;;;;;127.55;38.80;;;;;;;8.02;100.00;100127.66;10296067;28;20177;-79
2024/03/05 03:07:55;;;;;;;118.68;38.83;;;;;;;8.05;100.00;100138.13;10295326;28;20057;-78
2024/03/05 03:12:58;;;;;;;134.50;43.10;;;;;;;8.03;100.00;100134.69;10307700;28;20054;-78
2024/03/05 03:18:01;;;;;;;142.70;44.10;;;;;;;8.01;100.00;100136.63;10299655;28;20047;-79
2024/03/05 03:23:06;;;;;;;163.52;44.10;;;;;;;8.00;100.00;100126.91;10307793;28;20527;-80
2024/03/05 03:28:09;;;;;;;148.38;44.30;;;;;;;7.79;100.00;100132.91;10287949;28;20072;-79
2024/03/05 03:33:12;;;;;;;152.23;41.63;;;;;;;7.62;100.00;100135.91;10301556;28;20520;-79
2024/03/05 03:38:16;;;;;;;146.93;44.78;;;;;;;7.60;100.00;100133.38;10288021;28;20609;-79
2024/03/05 03:43:19;;;;;;;224.13;47.63;;;;;;;7.55;100.00;100135.53;10304046;28;20043;-78
2024/03/05 03:48:24;;;;;;;162.55;45.85;;;;;;;7.48;100.00;100132.41;10297291;28;20057;-79
2024/03/05 03:53:28;;;;;;;236.90;47.38;;;;;;;7.37;100.00;100124.31;10304539;28;20058;-81
2024/03/05 03:58:32;;;;;;;202.80;46.42;;;;;;;7.38;100.00;100125.22;10298481;28;20061;-80
2024/03/05 04:03:36;;;;;;;210.43;47.65;;;;;;;7.38;100.00;100133.22;10286787;28;20041;-79
2024/03/05 04:08:40;;;;;;;212.75;48.97;;;;;;;7.38;100.00;100134.06;10291247;28;20759;-79
2024/03/05 04:13:43;;;;;;;195.10;48.53;;;;;;;7.48;100.00;100135.09;10297861;28;20072;-79
2024/03/05 04:18:46;;;;;;;219.57;52.35;;;;;;;7.59;100.00;100142.34;10288041;28;20078;-78
2024/03/05 04:23:52;;;;;;;184.07;49.45;;;;;;;7.62;100.00;100134.09;10292525;28;20057;-78
2024/03/05 04:29:00;;;;;;;170.75;47.60;;;;;;;7.71;100.00;100130.78;10280432;28;20051;-79
2024/03/05 04:34:05;;;;;;;172.40;48.42;;;;;;;7.79;100.00;100137.34;10295175;28;20078;-79
2024/03/05 04:39:15;;;;;;;165.35;49.20;;;;;;;7.84;100.00;100136.06;10310701;28;20057;-79
2024/03/05 04:44:18;;;;;;;172.50;46.00;;;;;;;7.88;100.00;100140.22;10314632;28;20066;-79
2024/03/05 04:49:21;;;;;;;154.27;46.25;;;;;;;7.88;100.00;100139.38;10298785;28;20058;-80
2024/03/05 04:54:25;;;;;;;187.55;49.50;;;;;;;7.90;100.00;100146.31;10325863;28;20072;-80
2024/03/05 04:59:29;;;;;;;153.60;45.17;;;;;;;7.91;100.00;100137.31;10324940;28;20057;-78
2024/03/05 05:04:37;;;;;;;161.68;49.20;;;;;;;7.93;100.00;100137.22;10323039;28;20133;-78
2024/03/05 05:09:43;;;;;;;154.15;47.22;;;;;;;7.90;100.00;100118.72;10321529;28;20137;-78
2024/03/05 05:14:47;;;;;;;183.88;49.38;;;;;;;7.88;100.00;100123.34;10311999;28;20123;-78
2024/03/05 05:19:50;;;;;;;159.90;46.95;;;;;;;7.85;100.00;100119.06;10326295;28;20042;-77
2024/03/05 05:24:55;;;;;;;150.38;46.53;;;;;;;7.85;100.00;100120.88;10294513;28;21204;-79
2024/03/05 05:29:58;;;;;;;154.10;45.78;;;;;;;7.85;100.00;100127.09;10299251;28;20047;-79
2024/03/05 05:35:10;;;;;;;;;;;;;;;7.82;100.00;100126.47;10308114;28;20041;-79
2024/03/05 05:40:16;;;;;;;138.82;42.42;;;;;;;7.79;100.00;100137.34;10321873;28;19933;-79
2024/03/05 05:45:23;;;;;;;138.13;44.67;;;;;;;7.78;100.00;100130.31;10306936;28;20057;-79
2024/03/05 05:50:31;;;;;;;139.10;44.70;;;;;;;7.81;100.00;100140.78;10311028;28;20052;-78
2024/03/05 05:55:38;;;;;;;134.35;42.83;;;;;;;7.66;100.00;100157.00;10307424;28;20774;-80
2024/03/05 06:00:41;;;;;;;150.48;42.90;;;;;;;7.60;100.00;100154.75;10307859;28;20065;-80
2024/03/05 06:05:46;;;;;;;151.43;43.22;;;;;;;7.60;100.00;100167.28;10305020;28;20857;-78
2024/03/05 06:10:52;;;;;;;150.95;46.80;;;;;;;7.59;100.00;100170.91;10293330;28;20050;-78
2024/03/05 06:15:55;;;;;;;153.50;45.72;;;;;;;7.70;100.00;100187.00;10284497;28;20681;-77
2024/03/05 06:21:05;;;;;;;151.85;45.92;;;;;;;7.65;100.00;100184.69;10329438;28;20038;-79
2024/03/05 06:26:09;;;;;;;135.32;41.88;;;;;;;7.64;100.00;100184.78;10306624;28;20054;-79
2024/03/05 06:31:12;;;;;;;122.13;39.90;;;;;;;7.64;100.00;100191.00;10281895;28;20047;-79
2024/03/05 06:36:16;;;;;;;127.10;41.80;;;;;;;7.70;100.00;100193.22;10280551;28;20095;-81
2024/03/05 06:41:25;;;;;;;130.43;43.42;;;;;;;7.79;100.00;100190.84;10293902;28;20061;-80
2024/03/05 06:46:29;;;;;;;137.27;41.17;;;;;;;7.81;100.00;100191.59;10280052;28;20538;-80
2024/03/05 06:51:41;;;;;;;170.80;48.63;;;;;;;7.73;100.00;100197.47;10284984;28;20421;-78
2024/03/05 06:56:46;;;;;;;159.83;45.93;;;;;;;7.70;100.00;100193.22;10299349;28;20054;-79
2024/03/05 07:01:49;;;;;;;135.30;42.35;;;;;;;7.64;100.00;100195.50;10317397;28;20046;-79
2024/03/05 07:06:54;;;;;;;135.25;41.38;;;;;;;7.62;100.00;100208.94;10320545;28;20054;-81
2024/03/05 07:11:59;;;;;;;112.80;35.85;;;;;;;7.49;100.00;100206.31;10339009;28;20064;-80
2024/03/05 07:17:02;;;;;;;116.15;38.45;;;;;;;7.43;100.00;100198.75;10341002;28;20082;-81
2024/03/05 07:22:07;;;;;;;48.65;17.10;;;;;;;7.64;100.00;100206.19;10333999;28;20077;-79
2024/03/05 07:27:11;;;;;;;102.15;34.67;;;;;;;7.50;100.00;100200.00;10339438;28;20056;-79
2024/03/05 07:32:16;;;;;;;101.43;36.13;;;;;;;7.78;100.00;100189.16;10352505;28;20159;-80
2024/03/05 07:37:20;;;;;;;93.50;33.45;;;;;;;8.01;100.00;100180.31;10332842;28;20693;-81
2024/03/05 07:42:25;;;;;;;93.82;32.67;;;;;;;8.36;100.00;100190.19;10333448;28;20124;-80
2024/03/05 07:47:29;;;;;;;84.65;29.92;;;;;;;8.92;100.00;100184.22;10330126;28;20050;-79
2024/03/05 07:52:32;;;;;;;71.65;31.90;;;;;;;9.39;100.00;100185.84;10336667;28;20056;-79
2024/03/05 07:57:37;;;;;;;76.90;31.02;;;;;;;9.35;98.84;100203.16;10337454;28;20042;-79
2024/03/05 08:02:42;;;;;;;70.47;29.58;;;;;;;8.95;96.35;100208.94;10344882;28;20085;-80
2024/03/05 08:07:45;;;;;;;70.55;29.70;;;;;;;8.65;96.84;100211.28;10337286;28;21136;-80
2024/03/05 08:12:55;;;;;;;71.22;30.10;;;;;;;8.65;98.15;100216.66;10320519;28;20106;-79
2024/03/05 08:17:58;;;;;;;73.68;29.63;;;;;;;8.80;98.28;100215.47;10319186;28;20042;-80
2024/03/05 08:23:02;;;;;;;73.35;30.15;;;;;;;8.91;98.00;100202.09;10325745;28;20042;-81
2024/03/05 08:28:06;;;;;;;72.22;30.45;;;;;;;9.09;98.03;100207.03;10341480;28;20064;-79
2024/03/05 08:33:09;;;;;;;71.35;28.17;;;;;;;8.97;93.87;100201.66;10351681;28;20076;-80
2024/03/05 08:38:13;;;;;;;66.65;27.83;;;;;;;8.93;94.26;100192.13;10328716;28;20043;-80
2024/03/05 08:43:18;;;;;;;78.68;32.28;;;;;;;9.10;94.36;100209.56;10306687;28;20050;-80
2024/03/05 08:48:21;;;;;;;71.65;30.73;;;;;;;9.94;94.60;100202.91;10304044;28;20068;-79
2024/03/05 08:53:25;;;;;;;66.68;29.42;;;;;;;10.59;88.22;100206.50;10312214;28;20054;-82
2024/03/05 08:58:29;;;;;;;66.65;29.65;;;;;;;10.86;81.35;100209.66;10329384;28;20049;-80
2024/03/05 09:03:32;;;;;;;65.45;29.60;;;;;;;10.36;81.75;100212.91;10313363;28;20161;-79
2024/03/05 09:08:40;;;;;;;69.88;30.15;;;;;;;10.37;83.23;100212.81;10301175;28;20062;-78
2024/03/05 09:13:46;;;;;;;66.53;27.60;;;;;;;10.53;81.98;100208.81;10281669;28;20726;-80
2024/03/05 09:18:49;;;;;;;75.45;32.58;;;;;;;10.37;80.55;100222.69;10286023;28;20057;-79
2024/03/05 09:23:53;;;;;;;67.05;28.25;;;;;;;10.15;81.50;100226.31;10283051;28;20047;-79
2024/03/05 09:28:57;;;;;;;66.50;28.30;;;;;;;10.02;82.04;100226.44;10338833;28;20081;-79
2024/03/05 09:34:01;;;;;;;64.50;28.98;;;;;;;9.96;82.84;100224.25;10321668;28;20050;-81
2024/03/05 09:39:09;;;;;;;70.00;29.30;;;;;;;10.31;82.22;100217.81;10325523;28;20053;-79
2024/03/05 09:44:14;;;;;;;63.58;27.65;;;;;;;10.59;80.01;100216.41;10320814;28;20081;-82
2024/03/05 09:49:18;;;;;;;61.45;27.92;;;;;;;10.87;79.05;100216.75;10326291;28;20124;-79
2024/03/05 09:54:25;;;;;;;64.25;28.13;;;;;;;11.08;75.79;100217.59;10330635;28;20054;-81
2024/03/05 09:59:29;;;;;;;67.00;29.50;;;;;;;11.12;76.85;100219.06;10315770;28;20417;-80
2024/03/05 10:04:36;;;;;;;63.40;28.92;;;;;;;11.70;75.68;100223.88;10322122;28;20050;-79
2024/03/05 10:09:40;;;;;;;66.03;29.63;;;;;;;12.07;72.03;100209.84;10307871;28;20060;-80
2024/03/05 10:14:44;;;;;;;64.80;29.63;;;;;;;12.43;70.60;100207.53;10324176;28;20045;-80
2024/03/05 10:19:48;;;;;;;62.25;28.67;;;;;;;12.05;69.62;100207.28;10323435;28;20080;-80
2024/03/05 10:24:51;;;;;;;61.63;28.60;;;;;;;11.43;71.25;100211.88;10319890;28;20069;-78
2024/03/05 10:29:55;;;;;;;61.15;28.33;;;;;;;11.06;72.96;100217.72;10358387;28;20049;-80
2024/03/05 10:34:59;;;;;;;59.38;27.48;;;;;;;11.02;73.45;100208.22;10336401;28;20049;-80
2024/03/05 10:40:08;;;;;;;60.00;28.33;;;;;;;11.03;73.63;100207.25;10333734;28;20060;-78
2024/03/05 10:45:14;;;;;;;62.05;27.67;;;;;;;10.86;74.15;100213.22;10337238;28;20162;-81
2024/03/05 10:50:19;;;;;;;63.85;27.63;;;;;;;10.88;74.09;100213.91;10315313;28;20053;-79
2024/03/05 10:55:24;;;;;;;56.47;27.15;;;;;;;10.87;74.20;100216.75;10313785;28;20207;-80
2024/03/05 11:00:28;;;;;;;58.38;26.42;;;;;;;10.85;74.59;100222.25;10318580;28;20045;-78
2024/03/05 11:05:37;;;;;;;62.63;28.45;;;;;;;10.69;75.37;100220.00;10342902;28;20052;-79
2024/03/05 11:10:46;;;;;;;58.92;28.38;;;;;;;10.43;76.48;100224.03;10322289;28;20081;-80
2024/03/05 11:15:51;;;;;;;60.47;28.25;;;;;;;10.28;77.49;100226.97;10338777;28;20129;-81
2024/03/05 11:20:54;;;;;;;64.45;28.90;;;;;;;10.26;78.91;100223.59;10321231;28;20050;-80
2024/03/05 11:26:00;;;;;;;67.03;27.52;;;;;;;10.17;80.27;100214.47;10310652;28;20045;-79
2024/03/05 11:31:16;;;;;;;70.50;31.50;;;;;;;10.26;80.19;100223.59;10315437;28;20085;-79
2024/03/05 11:36:23;;;;;;;81.32;30.02;;;;;;;10.17;81.07;100224.31;10320766;28;20971;-79
2024/03/05 11:41:26;;;;;;;67.32;30.65;;;;;;;10.36;81.55;100221.81;10335851;28;20603;-77
2024/03/05 11:46:45;;;;;;;66.32;28.40;;;;;;;10.56;80.24;100224.72;10332807;28;20064;-77
2024/03/05 11:51:50;;;;;;;66.25;28.02;;;;;;;10.43;79.65;100221.34;10326333;28;20049;-77
2024/03/05 11:56:58;;;;;;;56.25;25.73;;;;;;;10.25;80.84;100216.50;10329430;28;20050;-77
2024/03/05 12:02:09;;;;;;;54.25;23.30;;;;;;;10.37;80.67;100220.88;10312202;28;20054;-79
2024/03/05 12:07:13;;;;;;;46.45;22.20;;;;;;;10.30;80.12;100226.84;10322231;28;20688;-80
2024/03/05 12:12:18;;;;;;;43.80;22.25;;;;;;;10.24;80.42;100233.59;10325367;28;20734;-79
2024/03/05 12:17:23;;;;;;;39.22;19.60;;;;;;;10.10;80.94;100231.19;10328517;28;20053;-81
2024/03/05 12:22:27;;;;;;;41.42;18.38;;;;;;;9.97;81.48;100225.09;10313175;28;20046;-80
2024/03/05 12:27:34;;;;;;;34.25;15.80;;;;;;;9.97;82.65;100238.53;10322905;28;20058;-78
2024/03/05 12:32:42;;;;;;;29.77;14.70;;;;;;;10.10;82.23;100232.03;10312390;28;20061;-78
2024/03/05 12:37:45;;;;;;;24.63;12.60;;;;;;;10.17;82.02;100227.00;10313737;28;20076;-80
2024/03/05 12:42:52;;;;;;;21.42;12.00;;;;;;;10.42;81.66;100223.16;10325451;28;20117;-80
2024/03/05 12:47:57;;;;;;;20.92;11.25;;;;;;;10.71;80.19;100227.94;10327831;28;20497;-79
2024/03/05 12:53:06;;;;;;;18.23;10.70;;;;;;;10.77;78.72;100230.94;10319731;28;20053;-80
2024/03/05 12:58:11;;;;;;;17.38;10.82;;;;;;;10.56;78.95;100222.88;10324855;28;20058;-79
2024/03/05 13:03:16;;;;;;;18.58;10.27;;;;;;;10.22;80.53;100229.31;10333865;28;20048;-80
2024/03/05 13:08:19;;;;;;;16.10;9.45;;;;;;;9.83;82.20;100229.72;10327474;28;20047;-78
2024/03/05 13:13:22;;;;;;;17.63;9.38;;;;;;;9.61;84.30;100238.63;10326550;28;20417;-80
2024/03/05 13:18:27;;;;;;;18.90;9.57;;;;;;;9.71;85.05;100234.25;10335552;28;20101;-80
2024/03/05 13:23:30;;;;;;;17.42;9.60;;;;;;;9.81;84.88;100242.41;10315648;28;20046;-79
2024/03/05 13:28:36;;;;;;;18.83;9.50;;;;;;;9.65;84.30;100248.16;10326600;28;20045;-80
2024/03/05 13:33:41;;;;;;;17.10;9.75;;;;;;;9.39;84.83;100238.63;10332986;28;20399;-79
2024/03/05 13:38:44;;;;;;;23.50;11.23;;;;;;;9.28;86.04;100236.78;10304091;28;20054;-79
2024/03/05 13:43:47;;;;;;;16.33;10.63;;;;;;;9.23;86.75;100238.97;10301704;28;20046;-83
2024/03/05 13:48:51;;;;;;;17.23;10.98;;;;;;;9.17;87.17;100236.75;10334379;28;20057;-80
2024/03/05 13:53:57;;;;;;;20.05;12.90;;;;;;;9.08;88.74;100234.78;10347223;28;21219;-81
2024/03/05 13:59:01;;;;;;;17.38;12.35;;;;;;;8.82;90.99;100240.31;10339512;28;20045;-81
2024/03/05 14:04:09;;;;;;;19.35;12.77;;;;;;;8.73;95.60;100241.88;10343412;28;20060;-80
2024/03/05 14:09:13;;;;;;;18.73;12.27;;;;;;;8.66;98.62;100242.44;10344013;28;20117;-80
2024/03/05 14:14:19;;;;;;;18.25;12.00;;;;;;;8.54;100.00;100236.19;10343278;28;20137;-82
2024/03/05 14:19:24;;;;;;;19.17;13.25;;;;;;;8.58;100.00;100245.69;10335384;28;20059;-81
2024/03/05 14:24:28;;;;;;;17.80;13.00;;;;;;;8.52;100.00;100249.69;10311230;28;20666;-82
2024/03/05 14:29:31;;;;;;;19.05;13.77;;;;;;;8.34;100.00;100251.03;10323801;28;20051;-81
2024/03/05 14:34:36;;;;;;;18.13;13.30;;;;;;;8.25;100.00;100251.69;10322381;28;20050;-81
2024/03/05 14:39:39;;;;;;;19.35;13.60;;;;;;;8.17;100.00;100254.91;10316398;28;20058;-81
2024/03/05 14:44:42;;;;;;;22.05;14.15;;;;;;;8.05;100.00;100262.03;10315030;28;20050;-82
2024/03/05 14:49:46;;;;;;;22.75;14.95;;;;;;;8.08;100.00;100272.50;10341958;28;20129;-80
2024/03/05 14:54:50;;;;;;;22.48;14.70;;;;;;;8.02;100.00;100275.63;10305165;28;20054;-81
2024/03/05 14:59:52;;;;;;;26.10;16.80;;;;;;;8.04;100.00;100275.53;10308094;28;20053;-80
2024/03/05 15:04:58;;;;;;;24.40;16.30;;;;;;;7.97;100.00;100277.78;10303900;28;20058;-79
2024/03/05 15:10:03;;;;;;;31.23;18.40;;;;;;;8.08;100.00;100282.34;10336467;28;20568;-81
2024/03/05 15:15:08;;;;;;;38.72;23.05;;;;;;;8.03;100.00;100277.31;10331273;28;20057;-81
2024/03/05 15:20:15;;;;;;;34.35;20.77;;;;;;;8.04;100.00;100281.72;10325181;28;20136;-81
2024/03/05 15:25:21;;;;;;;35.00;20.52;;;;;;;8.07;100.00;100281.50;10331200;28;20051;-80
2024/03/05 15:30:26;;;;;;;32.45;20.90;;;;;;;7.99;100.00;100299.94;10339624;28;20239;-78
2024/03/05 15:35:34;;;;;;;37.38;20.33;;;;;;;7.93;100.00;100287.84;10340285;28;20053;-78
2024/03/05 15:40:38;;;;;;;36.22;21.90;;;;;;;7.88;100.00;100299.84;10309130;28;20043;-78
2024/03/05 15:45:41;;;;;;;37.72;23.40;;;;;;;7.80;100.00;100295.03;10296977;28;20533;-79
2024/03/05 15:50:45;;;;;;;41.30;23.52;;;;;;;7.62;100.00;100302.50;10358116;28;20427;-80
2024/03/05 15:55:48;;;;;;;43.10;25.33;;;;;;;7.66;100.00;100306.69;10334543;28;20053;-79
2024/03/05 16:00:53;;;;;;;42.78;25.17;;;;;;;7.56;100.00;100310.97;10318387;28;20042;-79
2024/03/05 16:06:00;;;;;;;46.45;27.65;;;;;;;7.58;100.00;100322.41;10330604;28;20042;-79
2024/03/05 16:11:08;;;;;;;;;;;;;;;7.52;100.00;100328.19;10327703;28;20691;-81
2024/03/05 16:16:14;;;;;;;60.60;30.35;;;;;;;7.42;100.00;100329.78;10343333;28;19988;-82
2024/03/05 16:21:20;;;;;;;63.25;32.13;;;;;;;7.34;100.00;100329.47;10304362;28;20053;-80
2024/03/05 16:26:24;;;;;;;61.72;31.63;;;;;;;7.25;100.00;100322.94;10265604;28;20050;-79
2024/03/05 16:31:27;;;;;;;57.25;31.20;;;;;;;7.22;100.00;100344.50;10290433;28;20054;-80
2024/03/05 16:36:31;;;;;;;58.72;30.90;;;;;;;7.09;100.00;100340.97;10302041;28;20046;-81
2024/03/05 16:41:34;;;;;;;55.75;30.30;;;;;;;7.02;100.00;100351.19;10306186;28;20053;-82
2024/03/05 16:46:37;;;;;;;56.97;31.98;;;;;;;7.03;100.00;100352.91;10320791;28;20052;-79
2024/03/05 16:51:43;;;;;;;57.67;32.80;;;;;;;6.87;100.00;100353.06;10289157;28;20042;-81
2024/03/05 16:56:47;;;;;;;55.25;31.83;;;;;;;6.83;100.00;100367.56;10260363;28;20595;-80
2024/03/05 17:01:50;;;;;;;60.08;33.58;;;;;;;6.70;100.00;100374.66;10267420;28;20050;-80
2024/03/05 17:07:00;;;;;;;55.40;32.58;;;;;;;6.73;100.00;100377.13;10297411;28;20061;-82
2024/03/05 17:12:06;;;;;;;55.58;31.60;;;;;;;6.83;100.00;100386.25;10305831;28;20058;-81
2024/03/05 17:17:11;;;;;;;60.75;32.20;;;;;;;6.83;100.00;100391.59;10325713;28;20117;-81
2024/03/05 17:22:16;;;;;;;58.80;32.13;;;;;;;6.87;100.00;100392.22;10299506;28;20050;-81
2024/03/05 17:27:20;;;;;;;54.65;32.00;;;;;;;6.89;100.00;100393.88;10304413;28;21286;-81
2024/03/05 17:32:29;;;;;;;59.95;33.15;;;;;;;6.92;100.00;100401.69;10309284;28;20078;-81
2024/03/05 17:37:34;;;;;;;56.33;32.72;;;;;;;6.90;100.00;100408.94;10306528;28;20108;-80
2024/03/05 17:42:37;;;;;;;62.03;32.25;;;;;;;6.82;100.00;100411.22;10304683;28;20048;-80
2024/03/05 17:47:41;;;;;;;59.28;33.05;;;;;;;6.87;100.00;100410.94;10303020;28;20593;-78
2024/03/05 17:52:48;;;;;;;67.47;34.53;;;;;;;6.89;100.00;100411.72;10289196;28;20066;-81
2024/03/05 17:57:53;;;;;;;64.32;34.90;;;;;;;6.87;100.00;100433.16;10308581;28;20042;-83
2024/03/05 18:02:58;;;;;;;57.28;33.90;;;;;;;6.77;100.00;100432.88;10300532;28;20054;-80
2024/03/05 18:08:03;;;;;;;57.97;34.42;;;;;;;6.79;100.00;100430.09;10290427;28;20062;-81
2024/03/05 18:13:06;;;;;;;68.90;37.25;;;;;;;6.73;100.00;100436.69;10330065;28;20055;-79
2024/03/05 18:18:13;;;;;;;62.50;35.40;;;;;;;6.69;100.00;100448.53;10315727;28;20086;-81
2024/03/05 18:23:18;;;;;;;60.80;34.42;;;;;;;6.64;100.00;100450.66;10308295;28;20053;-80
2024/03/05 18:28:22;;;;;;;63.15;35.55;;;;;;;6.63;100.00;100451.56;10303978;28;20109;-82
2024/03/05 18:33:25;;;;;;;71.07;37.85;;;;;;;6.66;100.00;100447.88;10296213;28;21356;-81
2024/03/05 18:38:30;;;;;;;68.88;36.42;;;;;;;6.72;100.00;100448.34;10287355;28;20111;-81
2024/03/05 18:43:33;;;;;;;57.92;34.33;;;;;;;6.70;100.00;100457.41;10288554;28;20047;-80
2024/03/05 18:48:36;;;;;;;60.33;34.70;;;;;;;6.61;100.00;100458.84;10305392;28;20046;-82
2024/03/05 18:53:41;;;;;;;63.42;34.63;;;;;;;6.37;100.00;100459.44;10334951;28;20168;-79
2024/03/05 18:58:51;;;;;;;65.88;34.40;;;;;;;6.34;100.00;100448.94;10313236;28;20088;-81
2024/03/05 19:03:56;;;;;;;65.90;33.63;;;;;;;6.31;100.00;100458.97;10323787;28;20057;-79
2024/03/05 19:09:09;;;;;;;62.00;35.20;;;;;;;6.35;100.00;100465.81;10304146;28;20140;-80
2024/03/05 19:14:12;;;;;;;69.40;36.95;;;;;;;6.20;100.00;100464.06;10303414;28;20053;-80
2024/03/05 19:19:18;;;;;;;62.72;34.92;;;;;;;6.20;100.00;100469.41;10326083;28;20080;-82
2024/03/05 19:24:24;;;;;;;71.03;35.05;;;;;;;6.15;100.00;100469.72;10327374;28;20060;-80
2024/03/05 19:29:27;;;;;;;68.78;35.60;;;;;;;6.14;100.00;100468.88;10312639;28;20046;-80
2024/03/05 19:34:30;;;;;;;63.90;37.00;;;;;;;6.13;100.00;100474.28;10345334;28;20056;-81
2024/03/05 19:39:36;;;;;;;69.25;38.22;;;;;;;6.19;100.00;100481.91;10334206;28;20045;-81
2024/03/05 19:44:39;;;;;;;69.82;39.28;;;;;;;6.22;100.00;100480.84;10304958;28;20045;-83
2024/03/05 19:49:42;;;;;;;66.82;38.03;;;;;;;6.24;100.00;100484.28;10330867;28;20180;-79
2024/03/05 19:54:48;;;;;;;70.50;38.30;;;;;;;6.23;100.00;100480.78;10332540;28;20038;-82
2024/03/05 19:59:52;;;;;;;68.22;37.80;;;;;;;6.22;100.00;100479.03;10335555;28;20061;-80
2024/03/05 20:04:55;;;;;;;70.70;37.90;;;;;;;6.18;100.00;100482.84;10307454;28;20053;-80
2024/03/05 20:10:00;;;;;;;69.63;38.47;;;;;;;6.17;100.00;100483.78;10306922;28;20635;-80
2024/03/05 20:15:08;;;;;;;71.32;37.80;;;;;;;6.17;100.00;100491.78;10349834;28;21293;-81
2024/03/05 20:20:15;;;;;;;68.40;38.08;;;;;;;6.13;100.00;100487.63;10343696;28;20084;-81
2024/03/05 20:25:21;;;;;;;69.45;37.35;;;;;;;6.15;100.00;100491.06;10319879;28;20643;-80
2024/03/05 20:30:28;;;;;;;67.50;35.65;;;;;;;6.13;100.00;100503.63;10313121;28;20177;-81
2024/03/05 20:35:32;;;;;;;68.32;39.45;;;;;;;6.13;100.00;100511.63;10323517;28;20430;-79
2024/03/05 20:40:36;;;;;;;75.93;40.42;;;;;;;6.11;100.00;100506.34;10381855;28;20050;-79
2024/03/05 20:45:40;;;;;;;70.07;39.28;;;;;;;6.09;100.00;100505.63;10325565;28;20133;-81
2024/03/05 20:50:44;;;;;;;76.38;39.70;;;;;;;6.13;100.00;100511.63;10340623;28;20464;-79
2024/03/05 20:55:51;;;;;;;73.20;37.42;;;;;;;6.12;100.00;100515.25;10310649;28;20421;-79
2024/03/05 21:00:55;;;;;;;68.20;39.85;;;;;;;6.09;100.00;100518.94;10335790;28;20057;-82
2024/03/05 21:05:59;;;;;;;73.60;40.10;;;;;;;6.08;100.00;100513.69;10336821;28;20124;-80
2024/03/05 21:11:05;;;;;;;70.57;38.25;;;;;;;6.03;100.00;100513.97;10340866;28;20528;-79
2024/03/05 21:16:08;;;;;;;68.95;37.13;;;;;;;5.92;100.00;100524.41;10339078;28;20049;-79
2024/03/05 21:21:13;;;;;;;67.32;37.97;;;;;;;5.92;100.00;100516.41;10332085;28;20092;-79
2024/03/05 21:26:18;;;;;;;62.15;35.92;;;;;;;5.96;100.00;100531.31;10337750;28;20568;-80
2024/03/05 21:31:41;;;;;;;67.35;36.10;;;;;;;5.99;100.00;100535.59;10339568;28;20069;-80
2024/03/05 21:36:45;;;;;;;66.18;35.13;;;;;;;5.96;100.00;100536.63;10332547;28;20447;-78
2024/03/05 21:41:49;;;;;;;61.85;35.08;;;;;;;6.05;100.00;100535.22;10322220;28;20128;-80
2024/03/05 21:46:52;;;;;;;59.55;34.00;;;;;;;6.03;100.00;100540.63;10283413;28;20047;-81
2024/03/05 21:51:55;;;;;;;55.35;32.60;;;;;;;6.06;100.00;100536.94;10282803;28;20722;-80
2024/03/05 21:57:00;;;;;;;62.78;33.03;;;;;;;6.07;100.00;100549.34;10294650;28;20054;-79
2024/03/05 22:02:05;;;;;;;51.45;30.50;;;;;;;6.02;100.00;100549.59;10274579;28;20063;-81
2024/03/05 22:07:09;;;;;;;53.53;31.38;;;;;;;5.97;100.00;100549.00;10297898;28;20054;-81
2024/03/05 22:12:18;;;;;;;55.00;29.58;;;;;;;5.97;100.00;100543.66;10296011;28;20799;-79
2024/03/05 22:17:21;;;;;;;51.35;29.88;;;;;;;5.97;100.00;100549.00;10305551;28;20535;-78
2024/03/05 22:22:24;;;;;;;56.63;31.33;;;;;;;5.99;100.00;100551.59;10294081;28;20058;-80
2024/03/05 22:27:29;;;;;;;53.40;29.90;;;;;;;5.99;100.00;100554.25;10300473;28;20093;-80
2024/03/05 22:32:32;;;;;;;52.95;30.05;;;;;;;6.04;100.00;100562.84;10321383;28;20073;-82
2024/03/05 22:37:38;;;;;;;57.25;30.42;;;;;;;5.88;100.00;100569.06;10307731;28;20296;-80
2024/03/05 22:42:45;;;;;;;49.05;29.17;;;;;;;5.62;100.00;100572.38;10309800;28;20041;-79
2024/03/05 22:47:48;;;;;;;52.08;28.92;;;;;;;5.45;100.00;100576.88;10326546;28;20053;-80
2024/03/05 22:52:52;;;;;;;51.22;29.40;;;;;;;5.59;100.00;100578.75;10333248;28;20045;-80